createdAt,value
2022-09-03T00:00:12.270Z,92732.69
2022-09-03T00:03:32.046Z,92725.97
2022-09-03T00:06:52.637Z,92735.34
2022-09-03T00:10:06.180Z,92740.72
2022-09-03T00:13:11.227Z,92734.69
2022-09-03T00:16:22.258Z,92730.63
2022-09-03T00:19:42.067Z,92735.28
2022-09-03T00:22:57.988Z,92719.13
2022-09-03T00:26:07.944Z,92725.75
2022-09-03T00:29:36.976Z,92728.34
2022-09-03T00:32:49.383Z,92716.94
2022-09-03T00:36:05.658Z,92714.88
2022-09-03T00:39:17.443Z,92714.16
2022-09-03T00:42:55.682Z,92713.28
2022-09-03T00:46:07.984Z,92711.84
2022-09-03T00:49:35.585Z,92703.63
2022-09-03T00:52:48.285Z,92704.03
2022-09-03T00:56:07.719Z,92692.28
2022-09-03T00:59:27.048Z,92679.69
2022-09-03T01:02:50.950Z,92682.44
2022-09-03T01:06:21.151Z,92675.50
2022-09-03T01:09:54.506Z,92681.13
2022-09-03T01:13:20.948Z,92672.84
2022-09-03T01:16:52.159Z,92671.09
2022-09-03T01:20:10.082Z,92670.78
2022-09-03T01:23:16.934Z,92663.34
2022-09-03T01:26:59.517Z,92663.78
2022-09-03T01:30:18.984Z,92660.88
2022-09-03T01:33:54.018Z,92652.34
2022-09-03T01:37:24.445Z,92654.00
2022-09-03T01:40:42.888Z,92652.44
2022-09-03T01:44:04.672Z,92650.63
2022-09-03T01:47:14.763Z,92643.34
2022-09-03T01:50:27.781Z,92638.59
2022-09-03T01:53:40.803Z,92631.91
2022-09-03T01:57:26.408Z,92639.38
2022-09-03T02:00:36.976Z,92633.88
2022-09-03T02:03:45.561Z,92630.16
2022-09-03T02:06:50.076Z,92629.50
2022-09-03T02:09:53.145Z,92630.22
2022-09-03T02:13:00.691Z,92622.16
2022-09-03T02:16:14.929Z,92611.59
2022-09-03T02:19:19.066Z,92607.72
2022-09-03T02:22:22.924Z,92604.34
2022-09-03T02:25:34.594Z,92586.78
2022-09-03T02:28:38.299Z,92594.91
2022-09-03T02:31:41.490Z,92591.72
2022-09-03T02:34:45.402Z,92585.91
2022-09-03T02:37:48.957Z,92587.44
2022-09-03T02:40:54.939Z,92590.47
2022-09-03T02:44:11.942Z,92583.06
2022-09-03T02:47:15.814Z,92579.44
2022-09-03T02:50:18.946Z,92574.66
2022-09-03T02:53:22.471Z,92570.06
2022-09-03T02:56:28.360Z,92574.66
2022-09-03T02:59:32.440Z,92555.50
2022-09-03T03:02:36.237Z,92552.59
2022-09-03T03:05:51.527Z,92555.06
2022-09-03T03:08:56.481Z,92544.84
2022-09-03T03:12:00.296Z,92535.94
2022-09-03T03:15:04.455Z,92532.28
2022-09-03T03:18:08.817Z,92529.88
2022-09-03T03:21:15.803Z,92524.19
2022-09-03T03:24:19.962Z,92529.22
2022-09-03T03:27:24.520Z,92521.91
2022-09-03T03:30:29.282Z,92518.66
2022-09-03T03:33:33.844Z,92501.56
2022-09-03T03:36:37.742Z,92498.53
2022-09-03T03:39:41.564Z,92498.38
2022-09-03T03:42:45.301Z,92493.38
2022-09-03T03:46:01.436Z,92497.78
2022-09-03T03:49:07.657Z,92481.19
2022-09-03T03:52:11.449Z,92477.75
2022-09-03T03:55:16.051Z,92471.38
2022-09-03T03:58:19.773Z,92469.19
2022-09-03T04:01:26.639Z,92474.72
2022-09-03T04:04:30.390Z,92459.47
2022-09-03T04:07:34.768Z,92461.19
2022-09-03T04:10:39.040Z,92449.63
2022-09-03T04:13:45.372Z,92444.97
2022-09-03T04:16:49.107Z,92441.38
2022-09-03T04:19:53.301Z,92436.66
2022-09-03T04:23:01.675Z,92427.16
2022-09-03T04:26:05.744Z,92418.66
2022-09-03T04:29:10.856Z,92410.50
2022-09-03T04:32:32.992Z,92412.94
2022-09-03T04:35:35.978Z,92409.13
2022-09-03T04:38:44.997Z,92400.78
2022-09-03T04:41:48.830Z,92392.84
2022-09-03T04:44:52.188Z,92387.44
2022-09-03T04:48:03.071Z,92385.31
2022-09-03T04:51:14.390Z,92371.69
2022-09-03T04:54:18.196Z,92369.13
2022-09-03T04:57:23.764Z,92367.06
2022-09-03T05:00:27.879Z,92353.66
2022-09-03T05:03:31.936Z,92353.47
2022-09-03T05:06:37.600Z,92357.88
2022-09-03T05:09:41.667Z,92351.50
2022-09-03T05:12:45.636Z,92339.50
2022-09-03T05:15:49.957Z,92338.13
2022-09-03T05:18:55.005Z,92323.13
2022-09-03T05:21:58.572Z,92316.00
2022-09-03T05:25:02.336Z,92314.16
2022-09-03T05:28:06.365Z,92323.41
2022-09-03T05:31:19.349Z,92313.09
2022-09-03T05:34:23.462Z,92314.47
2022-09-03T05:37:27.284Z,92314.91
2022-09-03T05:40:32.482Z,92309.94
2022-09-03T05:43:37.325Z,92302.19
2022-09-03T05:46:41.560Z,92291.00
2022-09-03T05:49:45.155Z,92295.28
2022-09-03T05:52:49.109Z,92284.09
2022-09-03T05:56:00.661Z,92284.34
2022-09-03T05:59:08.376Z,92270.41
2022-09-03T06:02:12.228Z,92265.56
2022-09-03T06:05:17.790Z,92265.78
2022-09-03T06:08:22.865Z,92263.97
2022-09-03T06:11:30.330Z,92268.25
2022-09-03T06:14:34.060Z,92266.47
2022-09-03T06:17:39.756Z,92256.72
2022-09-03T06:20:43.494Z,92250.84
2022-09-03T06:23:59.743Z,92261.53
2022-09-03T06:27:03.946Z,92261.13
2022-09-03T06:30:08.266Z,92255.53
2022-09-03T06:33:11.994Z,92249.06
2022-09-03T06:36:20.313Z,92242.03
2022-09-03T06:39:25.222Z,92248.53
2022-09-03T06:42:29.256Z,92234.56
2022-09-03T06:45:33.478Z,92226.38
2022-09-03T06:48:38.336Z,92216.63
2022-09-03T06:51:43.902Z,92213.25
2022-09-03T06:54:49.118Z,92214.63
2022-09-03T06:57:57.613Z,92212.59
2022-09-03T07:01:07.893Z,92212.97
2022-09-03T07:04:12.310Z,92210.72
2022-09-03T07:07:17.238Z,92204.22
2022-09-03T07:10:22.309Z,92196.56
2022-09-03T07:13:26.864Z,92194.03
2022-09-03T07:16:34.446Z,92200.13
2022-09-03T07:19:38.891Z,92197.38
2022-09-03T07:22:42.239Z,92191.94
2022-09-03T07:25:54.622Z,92202.13
2022-09-03T07:28:59.567Z,92198.00
2022-09-03T07:32:03.899Z,92195.16
2022-09-03T07:35:08.055Z,92192.88
2022-09-03T07:38:12.367Z,92189.19
2022-09-03T07:41:17.609Z,92187.63
2022-09-03T07:44:32.156Z,92183.34
2022-09-03T07:47:36.037Z,92176.13
2022-09-03T07:50:41.203Z,92187.44
2022-09-03T07:53:49.595Z,92179.56
2022-09-03T07:56:53.854Z,92180.84
2022-09-03T07:59:57.953Z,92178.25
2022-09-03T08:03:06.624Z,92179.03
2022-09-03T08:06:11.784Z,92179.09
2022-09-03T08:09:15.980Z,92176.41
2022-09-03T08:12:20.054Z,92186.25
2022-09-03T08:15:23.798Z,92192.06
2022-09-03T08:18:28.149Z,92198.31
2022-09-03T08:21:33.608Z,92200.34
2022-09-03T08:24:37.472Z,92214.47
2022-09-03T08:27:41.651Z,92212.81
2022-09-03T08:30:45.724Z,92211.53
2022-09-03T08:33:51.934Z,92213.66
2022-09-03T08:36:55.983Z,92209.22
2022-09-03T08:40:00.939Z,92201.94
2022-09-03T08:43:18.320Z,92206.13
2022-09-03T08:46:26.516Z,92217.56
2022-09-03T08:49:52.937Z,92221.09
2022-09-03T08:53:10.380Z,92231.72
2022-09-03T08:56:36.181Z,92246.63
2022-09-03T08:59:40.013Z,92242.72
2022-09-03T09:03:23.349Z,92266.91
2022-09-03T09:06:54.144Z,92272.97
2022-09-03T09:10:29.440Z,92283.25
2022-09-03T09:13:41.129Z,92290.75
2022-09-03T09:17:33.144Z,92309.88
2022-09-03T09:20:57.115Z,92325.09
2022-09-03T09:24:06.314Z,92339.59
2022-09-03T09:27:15.430Z,92351.00
2022-09-03T09:30:20.402Z,92332.25
2022-09-03T09:33:25.736Z,92316.97
2022-09-03T09:36:29.044Z,92322.66
2022-09-03T09:39:33.013Z,92314.88
2022-09-03T09:42:37.347Z,92319.50
2022-09-03T09:45:45.811Z,92298.75
2022-09-03T09:48:55.843Z,92298.69
2022-09-03T09:52:12.514Z,92279.16
2022-09-03T09:55:21.477Z,92272.75
2022-09-03T09:58:28.858Z,92270.28
2022-09-03T10:01:32.718Z,92282.59
2022-09-03T10:04:36.241Z,92293.56
2022-09-03T10:07:40.019Z,92308.69
2022-09-03T10:10:50.286Z,92318.84
2022-09-03T10:13:56.045Z,92330.63
2022-09-03T10:17:11.273Z,92327.53
2022-09-03T10:20:34.686Z,92348.66
2022-09-03T10:23:52.205Z,92371.72
2022-09-03T10:26:56.945Z,92384.59
2022-09-03T10:30:01.214Z,92413.28
2022-09-03T10:33:28.517Z,92415.44
2022-09-03T10:37:00.446Z,92445.13
2022-09-03T10:40:19.668Z,92439.75
2022-09-03T10:43:58.703Z,92457.31
2022-09-03T10:47:11.982Z,92462.47
2022-09-03T10:50:18.871Z,92463.56
2022-09-03T10:53:53.702Z,92475.34
2022-09-03T10:57:18.794Z,92471.38
2022-09-03T11:00:26.562Z,92494.94
2022-09-03T11:03:36.142Z,92489.88
2022-09-03T11:06:53.034Z,92509.19
2022-09-03T11:10:13.679Z,92514.63
2022-09-03T11:13:28.807Z,92524.13
2022-09-03T11:16:35.067Z,92536.81
2022-09-03T11:19:49.860Z,92539.97
2022-09-03T11:22:58.468Z,92536.00
2022-09-03T11:26:08.176Z,92534.78
2022-09-03T11:29:24.755Z,92537.03
2022-09-03T11:33:12.312Z,92544.78
2022-09-03T11:36:29.043Z,92541.28
2022-09-03T11:39:32.795Z,92533.91
2022-09-03T11:42:42.461Z,92535.84
2022-09-03T11:45:46.358Z,92536.66
2022-09-03T11:48:59.077Z,92554.38
2022-09-03T11:52:10.537Z,92567.22
2022-09-03T11:55:26.307Z,92579.66
2022-09-03T11:58:33.454Z,92595.75
2022-09-03T12:01:40.487Z,92597.34
2022-09-03T12:04:51.193Z,92604.75
2022-09-03T12:08:05.399Z,92605.53
2022-09-03T12:11:45.558Z,92597.03
2022-09-03T12:15:10.514Z,92605.75
2022-09-03T12:18:26.701Z,92610.69
2022-09-03T12:21:31.669Z,92613.72
2022-09-03T12:24:38.533Z,92613.81
2022-09-03T12:27:46.462Z,92623.22
2022-09-03T12:30:53.994Z,92630.06
2022-09-03T12:34:03.814Z,92618.81
2022-09-03T12:38:04.341Z,92623.38
2022-09-03T12:44:12.208Z,92625.72
2022-09-03T12:47:36.489Z,92640.03
2022-09-03T12:50:42.526Z,92629.38
2022-09-03T12:53:54.418Z,92637.72
2022-09-03T12:57:00.645Z,92631.06
2022-09-03T13:00:11.132Z,92626.69
2022-09-03T13:03:24.261Z,92630.25
2022-09-03T13:06:36.065Z,92640.31
2022-09-03T13:09:41.856Z,92645.84
2022-09-03T13:12:53.478Z,92650.13
2022-09-03T13:16:06.452Z,92648.28
2022-09-03T13:19:44.218Z,92656.31
2022-09-03T13:23:25.654Z,92651.00
2022-09-03T13:26:41.500Z,92656.56
2022-09-03T13:29:57.440Z,92663.06
2022-09-03T13:33:08.154Z,92660.31
2022-09-03T13:36:17.190Z,92658.69
2022-09-03T13:39:41.421Z,92662.19
2022-09-03T13:42:56.083Z,92666.06
2022-09-03T13:46:06.743Z,92669.22
2022-09-03T13:49:56.932Z,92674.25
2022-09-03T13:53:09.547Z,92685.19
2022-09-03T13:56:47.340Z,92679.25
2022-09-03T13:59:57.906Z,92680.94
2022-09-03T14:03:16.229Z,92681.03
2022-09-03T14:06:26.596Z,92681.94
2022-09-03T14:09:49.981Z,92677.31
2022-09-03T14:13:17.314Z,92674.00
2022-09-03T14:16:55.701Z,92671.34
2022-09-03T14:20:08.015Z,92681.41
2022-09-03T14:23:43.372Z,92675.50
2022-09-03T14:26:55.093Z,92693.31
2022-09-03T14:30:05.546Z,92686.72
2022-09-03T14:33:59.279Z,92689.53
2022-09-03T14:37:27.220Z,92704.41
2022-09-03T14:41:06.847Z,92707.19
2022-09-03T14:44:44.764Z,92714.47
2022-09-03T14:48:12.471Z,92717.16
2022-09-03T14:51:35.075Z,92714.38
2022-09-03T14:55:07.782Z,92721.84
2022-09-03T14:58:58.636Z,92716.06
2022-09-03T15:02:40.431Z,92726.06
2022-09-03T15:06:03.646Z,92715.97
2022-09-03T15:09:28.104Z,92709.19
2022-09-03T15:12:47.522Z,92707.81
2022-09-03T15:16:00.829Z,92705.25
2022-09-03T15:19:32.341Z,92711.44
2022-09-03T15:22:52.598Z,92712.09
2022-09-03T15:26:11.828Z,92714.78
2022-09-03T15:29:40.041Z,92714.91
2022-09-03T15:33:00.584Z,92716.34
2022-09-03T15:36:18.109Z,92712.25
2022-09-03T15:39:38.749Z,92705.53
2022-09-03T15:42:45.076Z,92705.63
2022-09-03T15:46:00.891Z,92695.72
2022-09-03T15:49:18.880Z,92693.13
2022-09-03T15:52:41.278Z,92691.13
2022-09-03T15:55:46.506Z,92687.06
2022-09-03T15:59:20.971Z,92689.78
2022-09-03T16:02:34.019Z,92690.53
2022-09-03T16:05:52.196Z,92687.78
2022-09-03T16:09:06.173Z,92678.34
2022-09-03T16:12:16.793Z,92682.41
2022-09-03T16:15:28.125Z,92687.84
2022-09-03T16:18:41.039Z,92691.25
2022-09-03T16:22:26.426Z,92694.66
2022-09-03T16:25:54.208Z,92701.41
2022-09-03T16:29:03.478Z,92712.16
2022-09-03T16:32:27.920Z,92711.56
2022-09-03T16:35:42.888Z,92721.72
2022-09-03T16:39:00.631Z,92721.13
2022-09-03T16:42:14.396Z,92727.88
2022-09-03T16:45:49.785Z,92727.16
2022-09-03T16:49:11.500Z,92717.78
2022-09-03T16:52:38.880Z,92721.84
2022-09-03T16:56:09.415Z,92735.25
2022-09-03T16:59:34.401Z,92742.66
2022-09-03T17:02:43.414Z,92735.97
2022-09-03T17:06:09.134Z,92729.94
2022-09-03T17:09:41.675Z,92722.59
2022-09-03T17:13:14.975Z,92730.63
2022-09-03T17:16:24.934Z,92729.31
2022-09-03T17:19:59.802Z,92732.00
2022-09-03T17:23:21.826Z,92745.41
2022-09-03T17:26:46.491Z,92742.03
2022-09-03T17:30:08.305Z,92740.72
2022-09-03T17:33:36.301Z,92736.03
2022-09-03T17:36:53.118Z,92723.31
2022-09-03T17:40:00.380Z,92725.97
2022-09-03T17:43:34.678Z,92727.97
2022-09-03T17:47:03.458Z,92736.69
2022-09-03T17:50:12.869Z,92732.00
2022-09-03T17:53:28.699Z,92732.66
2022-09-03T17:56:48.808Z,92729.28
2022-09-03T18:00:02.467Z,92731.34
2022-09-03T18:03:24.381Z,92722.63
2022-09-03T18:06:47.100Z,92723.97
2022-09-03T18:10:18.346Z,92727.31
2022-09-03T18:13:43.398Z,92735.34
2022-09-03T18:16:56.872Z,92731.31
2022-09-03T18:20:26.582Z,92739.34
2022-09-03T18:24:04.112Z,92739.34
2022-09-03T18:27:37.632Z,92736.00
2022-09-03T18:30:59.567Z,92740.66
2022-09-03T18:34:23.529Z,92732.66
2022-09-03T18:37:47.297Z,92731.31
2022-09-03T18:41:23.449Z,92730.59
2022-09-03T18:45:06.562Z,92723.25
2022-09-03T18:49:10.263Z,92721.91
2022-09-03T18:52:47.567Z,92731.25
2022-09-03T18:56:34.542Z,92735.28
2022-09-03T19:00:28.836Z,92745.31
2022-09-03T19:04:22.150Z,92733.88
2022-09-03T19:08:10.776Z,92741.19
2022-09-03T19:11:33.135Z,92749.91
2022-09-03T19:15:14.931Z,92748.53
2022-09-03T19:18:43.004Z,92741.84
2022-09-03T19:22:09.788Z,92739.78
2022-09-03T19:25:35.205Z,92747.19
2022-09-03T19:29:03.652Z,92745.78
2022-09-03T19:32:36.008Z,92746.44
2022-09-03T19:36:14.445Z,92740.47
2022-09-03T19:39:54.495Z,92745.13
2022-09-03T19:43:28.598Z,92745.13
2022-09-03T19:47:01.159Z,92756.47
2022-09-03T19:50:41.586Z,92745.13
2022-09-03T19:54:04.519Z,92752.41
2022-09-03T19:57:30.531Z,92753.75
2022-09-03T20:00:53.115Z,92749.69
2022-09-03T20:04:18.186Z,92743.03
2022-09-03T20:07:40.780Z,92739.06
2022-09-03T20:10:48.674Z,92753.75
2022-09-03T20:14:10.886Z,92752.31
2022-09-03T20:17:23.330Z,92748.34
2022-09-03T20:20:37.593Z,92750.16
2022-09-03T20:24:11.781Z,92748.91
2022-09-03T20:27:25.204Z,92744.88
2022-09-03T20:30:36.401Z,92737.53
2022-09-03T20:34:07.261Z,92744.97
2022-09-03T20:37:42.498Z,92746.28
2022-09-03T20:41:10.263Z,92748.25
2022-09-03T20:44:22.960Z,92750.16
2022-09-03T20:47:48.821Z,92750.22
2022-09-03T20:51:01.436Z,92754.16
2022-09-03T20:54:36.581Z,92748.09
2022-09-03T20:57:57.525Z,92737.44
2022-09-03T21:01:23.120Z,92737.41
2022-09-03T21:04:51.492Z,92733.47
2022-09-03T21:07:57.341Z,92740.78
2022-09-03T21:11:14.687Z,92740.72
2022-09-03T21:14:35.555Z,92737.38
2022-09-03T21:17:38.564Z,92737.44
2022-09-03T21:21:10.139Z,92749.53
2022-09-03T21:24:48.592Z,92748.69
2022-09-03T21:28:02.760Z,92745.31
2022-09-03T21:31:15.540Z,92757.25
2022-09-03T21:34:26.060Z,92749.69
2022-09-03T21:37:33.026Z,92754.41
2022-09-03T21:40:46.871Z,92750.38
2022-09-03T21:44:36.583Z,92766.44
2022-09-03T21:47:48.817Z,92755.59
2022-09-03T21:50:56.862Z,92744.22
2022-09-03T21:54:04.108Z,92746.28
2022-09-03T21:57:22.355Z,92746.94
2022-09-03T22:00:33.372Z,92748.91
2022-09-03T22:03:37.653Z,92748.78
2022-09-03T22:07:13.317Z,92742.19
2022-09-03T22:10:21.343Z,92745.53
2022-09-03T22:13:39.157Z,92730.13
2022-09-03T22:16:53.507Z,92738.19
2022-09-03T22:19:57.602Z,92730.84
2022-09-03T22:23:10.076Z,92732.09
2022-09-03T22:26:31.931Z,92734.72
2022-09-03T22:30:03.604Z,92735.22
2022-09-03T22:33:31.506Z,92734.63
2022-09-03T22:36:54.528Z,92729.16
2022-09-03T22:40:15.374Z,92738.66
2022-09-03T22:43:42.200Z,92737.50
2022-09-03T22:47:33.972Z,92732.84
2022-09-03T22:51:09.797Z,92738.00
2022-09-03T22:54:25.100Z,92729.31
2022-09-03T22:57:34.113Z,92735.41
2022-09-03T23:00:50.586Z,92729.41
2022-09-03T23:04:06.969Z,92735.41
2022-09-03T23:07:35.504Z,92732.81
2022-09-03T23:10:54.574Z,92727.44
2022-09-03T23:14:12.864Z,92741.44
2022-09-03T23:20:30.637Z,92738.13
2022-09-03T23:24:14.448Z,92746.13
2022-09-03T23:27:24.317Z,92740.13
2022-09-03T23:30:28.198Z,92727.28
2022-09-03T23:33:31.861Z,92724.63
2022-09-03T23:37:38.522Z,92718.75
2022-09-03T23:40:50.062Z,92728.28
2022-09-03T23:44:32.763Z,92720.25
2022-09-03T23:47:51.852Z,92720.94
2022-09-03T23:51:07.583Z,92716.34
2022-09-03T23:54:50.211Z,92717.72
2022-09-03T23:58:07.713Z,92715.09
